Time;durP1;ratioP1;P1;durP2;ratioP2;P2;SDS_P1;SDS_P2;PMS_P1;PMS_P2;Temp;Humidity;BMP_temperature;BMP_pressure;BME280_temperature;BME280_humidity;BME280_pressure;Samples;Min_cycle;Max_cycle;Signal;HPM_P1;HPM_P2
2022/06/26 00:05:36;;;;;;;2.42;1.20;;;;;;;;;;12646312;28;20374;-77
2022/06/26 00:11:38;;;;;;;3.88;1.58;;;;;;;;;;12644255;28;20047;-76
2022/06/26 00:17:40;;;;;;;2.25;1.30;;;;;;;;;;12626691;28;20054;-77
2022/06/26 00:23:42;;;;;;;2.70;1.52;;;;;;;;;;12609739;28;20036;-77
2022/06/26 00:29:43;;;;;;;5.03;1.50;;;;;;;;;;12644272;28;20032;-82
2022/06/26 00:35:45;;;;;;;4.35;2.00;;;;;;;;;;12625481;28;20377;-81
2022/06/26 00:41:47;;;;;;;2.60;1.58;;;;;;;;;;12631542;28;20102;-82
2022/06/26 00:47:49;;;;;;;1.83;1.20;;;;;;;;;;12654885;28;20032;-82
2022/06/26 00:53:51;;;;;;;4.65;1.80;;;;;;;;;;12653984;28;20036;-77
2022/06/26 00:59:53;;;;;;;3.95;1.80;;;;;;;;;;12618443;28;20036;-77
2022/06/26 01:05:54;;;;;;;2.20;1.33;;;;;;;;;;12635477;28;20043;-76
2022/06/26 01:11:56;;;;;;;3.95;1.95;;;;;;;;;;12634820;28;20029;-77
2022/06/26 01:17:59;;;;;;;3.08;1.60;;;;;;;;;;12634587;28;20036;-77
2022/06/26 01:24:01;;;;;;;2.83;1.58;;;;;;;;;;12634621;28;20048;-77
2022/06/26 01:30:03;;;;;;;2.42;1.83;;;;;;;;;;12617011;28;20036;-77
2022/06/26 01:36:06;;;;;;;4.80;1.90;;;;;;;;;;12633273;28;20028;-77
2022/06/26 01:42:09;;;;;;;2.65;1.83;;;;;;;;;;12633397;28;20060;-81
2022/06/26 01:48:12;;;;;;;2.85;1.95;;;;;;;;;;12633104;28;20507;-76
2022/06/26 01:54:16;;;;;;;2.58;2.10;;;;;;;;;;12615819;28;20035;-81
2022/06/26 02:00:19;;;;;;;3.42;2.05;;;;;;;;;;12616591;28;20047;-76
2022/06/26 02:06:21;;;;;;;5.43;2.33;;;;;;;;;;12616196;28;20028;-82
2022/06/26 02:18:46;;;;;;;3.80;2.20;;;;;;;;;;12632414;28;20058;-77
2022/06/26 02:24:48;;;;;;;3.38;1.90;;;;;;;;;;12662553;28;20032;-82
2022/06/26 02:30:50;;;;;;;2.53;2.00;;;;;;;;;;12640343;28;20511;-82
2022/06/26 02:36:52;;;;;;;3.55;2.03;;;;;;;;;;12614407;28;20056;-82
2022/06/26 02:42:54;;;;;;;2.35;1.80;;;;;;;;;;12630489;28;20051;-78
2022/06/26 02:48:56;;;;;;;4.25;2.28;;;;;;;;;;12632585;28;20507;-82
2022/06/26 02:54:58;;;;;;;4.47;2.10;;;;;;;;;;12630601;28;20403;-78
2022/06/26 03:01:01;;;;;;;4.75;2.30;;;;;;;;;;12629211;28;20048;-76
2022/06/26 03:07:03;;;;;;;3.10;2.33;;;;;;;;;;12628991;28;20031;-76
2022/06/26 03:13:06;;;;;;;4.30;2.38;;;;;;;;;;12612874;28;20066;-82
2022/06/26 03:19:09;;;;;;;2.40;2.15;;;;;;;;;;12629935;28;20040;-76
2022/06/26 03:25:12;;;;;;;2.35;1.77;;;;;;;;;;12628487;28;20035;-81
2022/06/26 03:31:14;;;;;;;5.82;2.20;;;;;;;;;;12628742;28;20047;-77
2022/06/26 03:37:16;;;;;;;3.50;2.28;;;;;;;;;;12646163;28;20047;-77
2022/06/26 03:43:17;;;;;;;;;;;;;;;;;;12628006;28;20048;-81
2022/06/26 03:49:22;;;;;;;3.58;2.20;;;;;;;;;;12627327;28;20363;-77
2022/06/26 03:55:25;;;;;;;5.53;2.67;;;;;;;;;;12611401;28;20040;-82
2022/06/26 04:01:30;;;;;;;3.20;1.92;;;;;;;;;;12610633;28;20039;-82
2022/06/26 04:07:32;;;;;;;2.92;1.33;;;;;;;;;;12627220;28;20032;-78
2022/06/26 04:13:49;;;;;;;5.00;1.67;;;;;;;;;;12626417;28;20028;-78
2022/06/26 04:19:50;;;;;;;2.33;1.75;;;;;;;;;;12626737;28;20036;-82
2022/06/26 04:25:52;;;;;;;;;;;;;;;;;;12610495;28;20070;-78
2022/06/26 04:31:58;;;;;;;3.45;1.25;;;;;;;;;;12611608;28;19908;-77
2022/06/26 04:38:01;;;;;;;2.75;2.00;;;;;;;;;;12609507;28;20052;-76
2022/06/26 04:44:05;;;;;;;4.40;1.92;;;;;;;;;;12609740;28;20052;-82
2022/06/26 04:50:08;;;;;;;3.35;2.05;;;;;;;;;;12626088;28;20032;-81
2022/06/26 04:56:10;;;;;;;3.70;2.08;;;;;;;;;;12645657;28;20047;-77
2022/06/26 05:02:21;;;;;;;;;;;;;;;;;;12627798;28;20040;-77
2022/06/26 05:08:33;;;;;;;2.00;1.00;;;;;;;;;;12611284;28;19908;-82
2022/06/26 05:14:35;;;;;;;2.08;1.40;;;;;;;;;;12609152;28;20051;-78
2022/06/26 05:20:54;;;;;;;5.50;2.15;;;;;;;;;;12627867;28;20041;-81
2022/06/26 05:26:58;;;;;;;1.80;1.05;;;;;;;;;;12629380;28;20032;-77
2022/06/26 05:33:00;;;;;;;4.63;1.40;;;;;;;;;;12618200;28;20032;-77
2022/06/26 05:39:01;;;;;;;2.45;1.80;;;;;;;;;;12618764;28;20059;-78
2022/06/26 05:45:06;;;;;;;1.85;1.35;;;;;;;;;;12633955;28;20028;-77
2022/06/26 05:51:09;;;;;;;1.42;1.08;;;;;;;;;;12633670;28;20032;-83
2022/06/26 05:57:14;;;;;;;7.22;2.00;;;;;;;;;;12651234;28;20039;-81
2022/06/26 06:03:35;;;;;;;4.07;2.00;;;;;;;;;;12632669;28;20502;-77
2022/06/26 06:09:37;;;;;;;3.53;1.50;;;;;;;;;;12632371;28;20032;-77
2022/06/26 06:15:39;;;;;;;2.85;1.95;;;;;;;;;;12632905;28;20043;-81
2022/06/26 06:21:41;;;;;;;3.97;1.35;;;;;;;;;;12617084;28;20051;-77
2022/06/26 06:27:43;;;;;;;3.30;1.35;;;;;;;;;;12631409;28;20391;-81
2022/06/26 06:33:48;;;;;;;2.13;1.20;;;;;;;;;;12632084;28;20035;-77
2022/06/26 06:39:53;;;;;;;2.10;1.30;;;;;;;;;;12634458;28;20059;-82
2022/06/26 06:45:55;;;;;;;2.10;1.20;;;;;;;;;;12614327;28;20036;-81
2022/06/26 06:51:59;;;;;;;4.55;1.25;;;;;;;;;;12614207;28;20028;-76
2022/06/26 06:58:00;;;;;;;3.05;1.50;;;;;;;;;;12613517;28;20028;-76
2022/06/26 07:04:03;;;;;;;2.75;1.33;;;;;;;;;;12630147;28;20059;-82
2022/06/26 07:10:05;;;;;;;3.13;1.55;;;;;;;;;;12630120;28;20043;-76
2022/06/26 07:16:06;;;;;;;2.83;1.40;;;;;;;;;;12629125;28;20249;-77
2022/06/26 07:22:08;;;;;;;1.98;1.33;;;;;;;;;;12629144;28;20494;-82
2022/06/26 07:28:11;;;;;;;4.22;1.20;;;;;;;;;;12628596;28;20028;-82
2022/06/26 07:34:13;;;;;;;2.60;1.60;;;;;;;;;;12611601;28;20551;-82
2022/06/26 07:40:15;;;;;;;2.97;1.05;;;;;;;;;;12630426;28;20411;-82
2022/06/26 07:46:17;;;;;;;3.50;1.83;;;;;;;;;;12628309;28;20138;-81
2022/06/26 07:52:23;;;;;;;1.85;1.05;;;;;;;;;;12628021;28;20066;-82
2022/06/26 07:58:26;;;;;;;3.15;1.55;;;;;;;;;;12645733;28;20503;-82
2022/06/26 08:04:28;;;;;;;2.95;1.70;;;;;;;;;;12645545;28;20039;-82
2022/06/26 08:10:29;;;;;;;3.38;1.40;;;;;;;;;;12646160;28;20383;-82
2022/06/26 08:16:31;;;;;;;3.75;1.48;;;;;;;;;;12626993;28;20043;-77
2022/06/26 08:22:33;;;;;;;2.35;1.10;;;;;;;;;;12626306;28;20403;-81
2022/06/26 08:28:36;;;;;;;3.45;1.15;;;;;;;;;;12648875;28;20040;-82
2022/06/26 08:34:38;;;;;;;2.17;1.23;;;;;;;;;;12609436;28;20593;-77
2022/06/26 08:40:40;;;;;;;3.83;1.15;;;;;;;;;;12609644;28;20056;-82
2022/06/26 08:46:43;;;;;;;4.88;1.60;;;;;;;;;;12644269;28;20031;-82
2022/06/26 08:52:45;;;;;;;4.38;1.60;;;;;;;;;;12643888;28;20051;-76
2022/06/26 08:58:47;;;;;;;2.55;1.30;;;;;;;;;;12625947;28;20032;-81
2022/06/26 09:04:48;;;;;;;3.72;1.23;;;;;;;;;;12634607;28;20040;-82
2022/06/26 09:10:50;;;;;;;3.50;1.02;;;;;;;;;;12654388;28;20336;-81
2022/06/26 09:16:52;;;;;;;1.70;1.00;;;;;;;;;;12653000;28;20510;-77
2022/06/26 09:22:58;;;;;;;2.45;1.30;;;;;;;;;;12653350;28;20051;-81
2022/06/26 09:29:08;;;;;;;3.08;1.40;;;;;;;;;;12634690;28;20036;-77
2022/06/26 09:35:09;;;;;;;2.97;1.38;;;;;;;;;;12653085;28;20395;-81
2022/06/26 09:41:11;;;;;;;5.93;1.45;;;;;;;;;;12652022;28;20059;-76
2022/06/26 09:47:23;;;;;;;3.20;1.20;;;;;;;;;;12651814;28;20046;-77
2022/06/26 09:53:26;;;;;;;1.60;0.98;;;;;;;;;;12651881;28;20032;-77
2022/06/26 09:59:27;;;;;;;3.65;1.17;;;;;;;;;;12632914;28;20495;-81
2022/06/26 10:11:51;;;;;;;2.45;1.20;;;;;;;;;;12650443;28;20055;-82
2022/06/26 10:17:53;;;;;;;1.08;0.85;;;;;;;;;;12632184;28;20050;-82
2022/06/26 10:24:02;;;;;;;1.60;0.95;;;;;;;;;;12650652;28;20051;-78
2022/06/26 10:30:07;;;;;;;2.05;0.82;;;;;;;;;;12649644;28;20382;-77
2022/06/26 10:36:08;;;;;;;1.63;0.90;;;;;;;;;;12653650;28;20490;-81
2022/06/26 10:48:36;;;;;;;2.15;1.00;;;;;;;;;;12649479;28;20032;-82
2022/06/26 10:54:38;;;;;;;1.75;0.75;;;;;;;;;;12648432;28;20024;-77
2022/06/26 11:00:41;;;;;;;1.00;0.70;;;;;;;;;;12613508;28;20387;-82
2022/06/26 11:06:43;;;;;;;1.35;1.05;;;;;;;;;;12630980;28;20036;-82
2022/06/26 11:12:46;;;;;;;2.78;2.10;;;;;;;;;;12629713;28;20483;-77
2022/06/26 11:18:48;;;;;;;1.95;0.85;;;;;;;;;;12647266;28;20036;-77
2022/06/26 11:24:51;;;;;;;1.17;0.80;;;;;;;;;;12646269;28;20095;-77
2022/06/26 11:30:53;;;;;;;0.90;0.60;;;;;;;;;;12646631;28;20043;-81
2022/06/26 11:36:59;;;;;;;3.00;0.80;;;;;;;;;;12646668;28;20480;-77
2022/06/26 11:43:02;;;;;;;2.15;1.02;;;;;;;;;;12628182;28;20491;-81
2022/06/26 11:49:04;;;;;;;4.00;0.90;;;;;;;;;;12628177;28;20039;-76
2022/06/26 11:55:06;;;;;;;1.15;0.80;;;;;;;;;;12628033;28;20101;-81
2022/06/26 12:01:09;;;;;;;3.58;0.68;;;;;;;;;;12628706;28;20415;-76
2022/06/26 12:07:11;;;;;;;1.05;0.55;;;;;;;;;;12646087;28;20043;-77
2022/06/26 12:13:20;;;;;;;1.10;0.57;;;;;;;;;;12649814;28;20028;-77
2022/06/26 12:19:22;;;;;;;2.38;1.00;;;;;;;;;;12644815;28;20036;-77
2022/06/26 12:25:31;;;;;;;3.10;1.30;;;;;;;;;;12627271;28;20035;-82
2022/06/26 12:31:32;;;;;;;2.22;0.88;;;;;;;;;;12653024;28;20008;-81
2022/06/26 12:37:34;;;;;;;4.15;0.98;;;;;;;;;;12643745;28;20082;-82
2022/06/26 12:43:36;;;;;;;2.83;1.27;;;;;;;;;;12661389;28;20048;-78
2022/06/26 12:49:38;;;;;;;3.55;0.77;;;;;;;;;;12660993;28;20035;-77
2022/06/26 12:55:39;;;;;;;1.98;0.90;;;;;;;;;;12661214;28;20043;-81
2022/06/26 13:01:41;;;;;;;2.97;1.30;;;;;;;;;;12642865;28;20384;-77
2022/06/26 13:07:44;;;;;;;3.38;1.00;;;;;;;;;;12661311;28;20463;-81
2022/06/26 13:13:46;;;;;;;2.05;1.00;;;;;;;;;;12660865;28;20028;-82
2022/06/26 13:19:47;;;;;;;1.73;1.00;;;;;;;;;;12642511;28;20394;-77
2022/06/26 13:25:49;;;;;;;2.17;0.80;;;;;;;;;;12660362;28;20032;-76
2022/06/26 13:31:52;;;;;;;1.77;1.00;;;;;;;;;;12659994;28;20032;-76
2022/06/26 13:37:54;;;;;;;1.85;0.90;;;;;;;;;;12642125;28;20055;-77
2022/06/26 13:43:55;;;;;;;3.17;1.00;;;;;;;;;;12641760;28;20043;-77
2022/06/26 13:49:57;;;;;;;2.10;1.00;;;;;;;;;;12635290;28;20031;-76
2022/06/26 13:55:59;;;;;;;2.83;1.08;;;;;;;;;;12633882;28;20059;-81
2022/06/26 14:02:01;;;;;;;3.60;0.85;;;;;;;;;;12616843;28;20040;-81
2022/06/26 14:08:03;;;;;;;2.20;0.98;;;;;;;;;;12632995;28;20035;-81
2022/06/26 14:14:04;;;;;;;2.15;0.95;;;;;;;;;;12632617;28;20024;-77
2022/06/26 14:20:07;;;;;;;1.83;1.10;;;;;;;;;;12650323;28;20391;-81
2022/06/26 14:26:08;;;;;;;1.73;0.77;;;;;;;;;;12631990;28;20039;-76
2022/06/26 14:32:11;;;;;;;1.90;0.90;;;;;;;;;;12631593;28;20399;-81
2022/06/26 14:38:14;;;;;;;2.85;1.10;;;;;;;;;;12649625;28;20052;-77
2022/06/26 14:44:15;;;;;;;1.25;0.73;;;;;;;;;;12631098;28;20040;-77
2022/06/26 14:50:17;;;;;;;1.60;0.90;;;;;;;;;;12648936;28;20403;-81
2022/06/26 14:56:19;;;;;;;2.63;0.70;;;;;;;;;;12614092;28;20043;-80
2022/06/26 15:02:21;;;;;;;1.73;0.75;;;;;;;;;;12629142;28;20400;-80
2022/06/26 15:08:24;;;;;;;1.63;0.52;;;;;;;;;;12630711;28;20036;-77
2022/06/26 15:14:26;;;;;;;1.30;0.57;;;;;;;;;;12647963;28;20027;-77
2022/06/26 15:20:27;;;;;;;0.88;0.35;;;;;;;;;;12630037;28;20043;-81
2022/06/26 15:26:29;;;;;;;1.38;0.60;;;;;;;;;;12628857;28;20047;-77
2022/06/26 15:32:32;;;;;;;2.58;0.70;;;;;;;;;;12647073;28;20597;-77
2022/06/26 15:38:33;;;;;;;1.45;0.63;;;;;;;;;;12612305;28;20059;-81
2022/06/26 15:44:35;;;;;;;2.17;0.60;;;;;;;;;;12611680;28;20102;-81
2022/06/26 15:50:37;;;;;;;1.15;0.70;;;;;;;;;;12628505;28;20498;-76
2022/06/26 15:56:39;;;;;;;0.82;0.50;;;;;;;;;;12645568;28;20058;-81
2022/06/26 16:02:41;;;;;;;1.63;0.50;;;;;;;;;;12627398;28;20401;-82
2022/06/26 16:08:42;;;;;;;1.02;0.63;;;;;;;;;;12627710;28;20039;-81
2022/06/26 16:14:44;;;;;;;1.02;0.35;;;;;;;;;;12626680;28;20415;-81
2022/06/26 16:20:46;;;;;;;1.65;0.68;;;;;;;;;;12626777;28;20036;-81
2022/06/26 16:26:48;;;;;;;1.50;0.70;;;;;;;;;;12609793;28;20361;-81
2022/06/26 16:32:50;;;;;;;1.85;0.52;;;;;;;;;;12643757;28;20477;-82
2022/06/26 16:38:52;;;;;;;3.53;0.90;;;;;;;;;;12644199;28;20067;-82
2022/06/26 16:44:54;;;;;;;2.47;0.70;;;;;;;;;;12608932;28;20051;-81
2022/06/26 16:50:56;;;;;;;2.35;0.85;;;;;;;;;;12644659;28;20028;-77
2022/06/26 16:56:57;;;;;;;1.17;0.70;;;;;;;;;;12625870;28;20035;-77
2022/06/26 17:02:59;;;;;;;2.38;0.70;;;;;;;;;;12643134;28;20044;-76
2022/06/26 17:09:01;;;;;;;2.40;0.70;;;;;;;;;;12626209;28;20040;-76
2022/06/26 17:15:03;;;;;;;1.20;0.60;;;;;;;;;;12624936;28;20472;-77
2022/06/26 17:21:05;;;;;;;1.42;0.70;;;;;;;;;;12643505;28;20039;-81
2022/06/26 17:27:07;;;;;;;2.15;0.60;;;;;;;;;;12652017;28;20036;-81
2022/06/26 17:33:08;;;;;;;1.90;0.82;;;;;;;;;;12617490;28;20499;-81
2022/06/26 17:39:10;;;;;;;1.35;0.50;;;;;;;;;;12634766;28;20048;-81
2022/06/26 17:45:12;;;;;;;2.00;0.90;;;;;;;;;;12651422;28;20039;-77
2022/06/26 17:51:14;;;;;;;1.55;0.75;;;;;;;;;;12633206;28;20028;-76
2022/06/26 17:57:15;;;;;;;1.80;0.63;;;;;;;;;;12650945;28;20063;-76
2022/06/26 18:03:17;;;;;;;1.05;0.43;;;;;;;;;;12650840;28;20044;-76
2022/06/26 18:09:19;;;;;;;0.73;0.40;;;;;;;;;;12633219;28;20110;-76
2022/06/26 18:15:22;;;;;;;1.35;0.60;;;;;;;;;;12615792;28;20032;-77
2022/06/26 18:21:23;;;;;;;1.70;0.40;;;;;;;;;;12650082;28;20047;-77
2022/06/26 18:27:25;;;;;;;1.38;0.50;;;;;;;;;;12631492;28;20031;-76
2022/06/26 18:33:27;;;;;;;1.50;0.65;;;;;;;;;;12631748;28;20507;-77
2022/06/26 18:39:29;;;;;;;1.40;0.60;;;;;;;;;;12648599;28;20071;-76
2022/06/26 18:45:31;;;;;;;1.95;0.70;;;;;;;;;;12630674;28;20046;-77
2022/06/26 18:51:32;;;;;;;1.63;0.60;;;;;;;;;;12630501;28;20032;-76
2022/06/26 18:57:34;;;;;;;3.55;0.70;;;;;;;;;;12647896;28;20045;-77
2022/06/26 19:03:36;;;;;;;1.85;0.55;;;;;;;;;;12629678;28;20047;-76
2022/06/26 19:09:38;;;;;;;1.73;0.60;;;;;;;;;;12648318;28;20456;-76
2022/06/26 19:15:40;;;;;;;1.98;0.60;;;;;;;;;;12612029;28;20035;-76
2022/06/26 19:21:42;;;;;;;0.70;0.40;;;;;;;;;;12628554;28;20036;-76
2022/06/26 19:27:44;;;;;;;0.90;0.68;;;;;;;;;;12646767;28;20032;-81
2022/06/26 19:33:46;;;;;;;1.08;0.50;;;;;;;;;;12647013;28;20032;-81
2022/06/26 19:39:47;;;;;;;1.20;0.60;;;;;;;;;;12627989;28;20067;-76
2022/06/26 19:45:49;;;;;;;1.02;0.55;;;;;;;;;;12645074;28;20040;-77
2022/06/26 19:51:51;;;;;;;1.35;0.40;;;;;;;;;;12627448;28;20028;-76
2022/06/26 19:57:53;;;;;;;0.50;0.40;;;;;;;;;;12645606;28;20039;-76
2022/06/26 20:03:59;;;;;;;1.63;0.50;;;;;;;;;;12645239;28;20412;-76
2022/06/26 20:10:01;;;;;;;0.88;0.50;;;;;;;;;;12611238;28;20039;-81
2022/06/26 20:16:03;;;;;;;1.73;0.68;;;;;;;;;;12644895;28;20043;-81
2022/06/26 20:22:05;;;;;;;1.10;0.52;;;;;;;;;;12626544;28;20407;-81
2022/06/26 20:28:07;;;;;;;0.65;0.47;;;;;;;;;;12639272;28;20036;-81
2022/06/26 20:34:08;;;;;;;0.73;0.45;;;;;;;;;;12610034;28;20035;-82
2022/06/26 20:40:11;;;;;;;1.38;0.43;;;;;;;;;;12644275;28;20052;-82
2022/06/26 20:46:13;;;;;;;0.60;0.40;;;;;;;;;;12625676;28;20428;-82
2022/06/26 20:52:15;;;;;;;1.52;0.70;;;;;;;;;;12625684;28;20503;-77
2022/06/26 20:58:17;;;;;;;1.25;0.40;;;;;;;;;;12650574;28;20036;-77
2022/06/26 21:04:19;;;;;;;0.73;0.50;;;;;;;;;;12653476;28;20036;-77
2022/06/26 21:10:21;;;;;;;0.55;0.55;;;;;;;;;;12635422;28;20039;-77
2022/06/26 21:16:24;;;;;;;1.10;0.50;;;;;;;;;;12634947;28;20036;-77
2022/06/26 21:22:26;;;;;;;1.98;0.63;;;;;;;;;;12634980;28;20071;-78
2022/06/26 21:28:27;;;;;;;1.27;0.85;;;;;;;;;;12652601;28;20069;-80
2022/06/26 21:34:29;;;;;;;2.35;0.50;;;;;;;;;;12652426;28;20055;-80
2022/06/26 21:40:31;;;;;;;1.10;0.70;;;;;;;;;;12634114;28;20061;-81
2022/06/26 21:46:33;;;;;;;1.55;0.65;;;;;;;;;;12651902;28;20391;-81
2022/06/26 21:52:39;;;;;;;2.88;0.90;;;;;;;;;;12633804;28;20031;-80
2022/06/26 21:58:40;;;;;;;1.35;1.25;;;;;;;;;;12617021;28;20028;-81
2022/06/26 22:04:42;;;;;;;1.90;0.80;;;;;;;;;;12651028;28;20044;-81
2022/06/26 22:10:44;;;;;;;1.95;1.02;;;;;;;;;;12651912;28;20036;-81
2022/06/26 22:16:49;;;;;;;2.38;0.85;;;;;;;;;;12650239;28;20483;-76
2022/06/26 22:22:51;;;;;;;3.40;1.08;;;;;;;;;;12650553;28;20060;-76
2022/06/26 22:28:53;;;;;;;1.20;0.70;;;;;;;;;;12650366;28;20032;-76
2022/06/26 22:34:54;;;;;;;1.50;0.70;;;;;;;;;;12631882;28;20028;-77
2022/06/26 22:40:56;;;;;;;1.77;0.73;;;;;;;;;;12649770;28;20052;-76
2022/06/26 22:46:59;;;;;;;3.50;0.60;;;;;;;;;;12649055;28;20032;-81
2022/06/26 22:53:01;;;;;;;0.75;0.75;;;;;;;;;;12648972;28;20036;-81
2022/06/26 22:59:03;;;;;;;1.88;0.80;;;;;;;;;;12614176;28;20043;-75
2022/06/26 23:05:05;;;;;;;2.10;0.80;;;;;;;;;;12613475;28;20051;-76
2022/06/26 23:11:06;;;;;;;2.17;0.70;;;;;;;;;;12629853;28;20048;-76
2022/06/26 23:17:08;;;;;;;1.08;0.60;;;;;;;;;;12613125;28;20032;-75
2022/06/26 23:23:10;;;;;;;0.90;0.68;;;;;;;;;;12646446;28;20040;-80
2022/06/26 23:29:12;;;;;;;0.77;0.63;;;;;;;;;;12628935;28;20479;-77
2022/06/26 23:35:14;;;;;;;0.70;0.70;;;;;;;;;;12612284;28;20032;-76
2022/06/26 23:41:15;;;;;;;1.33;0.95;;;;;;;;;;12646435;28;20044;-81
2022/06/26 23:47:17;;;;;;;0.70;0.55;;;;;;;;;;12646261;28;20472;-75
2022/06/26 23:53:19;;;;;;;2.97;0.88;;;;;;;;;;12645785;28;20024;-81
2022/06/26 23:59:21;;;;;;;1.95;0.90;;;;;;;;;;12646033;28;20063;-81
